Time;durP1;ratioP1;P1;durP2;ratioP2;P2;SDS_P1;SDS_P2;PMS_P1;PMS_P2;Temp;Humidity;BMP_temperature;BMP_pressure;BME280_temperature;BME280_humidity;BME280_pressure;Samples;Min_cycle;Max_cycle;Signal;HPM_P1;HPM_P2
2023/05/22 00:01:43;;;;;;;6.85;4.95;;;;;;;;;;5054557;28;20025;-67
2023/05/22 00:04:12;;;;;;;14.23;5.63;;;;;;;;;;5054670;28;20021;-67
2023/05/22 00:06:41;;;;;;;11.32;5.70;;;;;;;;;;5054393;28;20027;-67
2023/05/22 00:09:08;;;;;;;6.30;5.03;;;;;;;;;;5054449;28;20397;-67
2023/05/22 00:11:35;;;;;;;10.25;5.63;;;;;;;;;;5054100;28;20488;-67
2023/05/22 00:14:01;;;;;;;6.95;5.90;;;;;;;;;;5054213;28;20029;-67
2023/05/22 00:16:28;;;;;;;9.10;5.97;;;;;;;;;;5054015;28;20029;-67
2023/05/22 00:18:56;;;;;;;8.23;6.38;;;;;;;;;;5054062;28;20040;-67
2023/05/22 00:21:23;;;;;;;6.82;5.30;;;;;;;;;;5053990;28;20025;-67
2023/05/22 00:23:49;;;;;;;8.90;5.95;;;;;;;;;;5053975;28;20043;-67
2023/05/22 00:26:16;;;;;;;9.60;6.00;;;;;;;;;;5054077;28;20035;-67
2023/05/22 00:28:42;;;;;;;7.25;6.20;;;;;;;;;;5053880;28;20028;-67
2023/05/22 00:31:09;;;;;;;10.05;6.40;;;;;;;;;;5053776;28;20048;-67
2023/05/22 00:33:35;;;;;;;13.48;5.97;;;;;;;;;;5054051;28;20035;-67
2023/05/22 00:36:01;;;;;;;7.60;6.50;;;;;;;;;;5053757;28;20027;-67
2023/05/22 00:38:32;;;;;;;8.38;6.32;;;;;;;;;;5053953;28;20026;-67
2023/05/22 00:40:59;;;;;;;7.07;5.88;;;;;;;;;;5052451;28;20043;-67
2023/05/22 00:43:26;;;;;;;10.68;6.35;;;;;;;;;;5053569;28;20025;-67
2023/05/22 00:45:55;;;;;;;11.32;6.30;;;;;;;;;;5053313;28;20492;-67
2023/05/22 00:48:22;;;;;;;7.22;5.75;;;;;;;;;;5053396;28;20021;-67
2023/05/22 00:50:49;;;;;;;8.38;5.85;;;;;;;;;;5053293;28;20040;-67
2023/05/22 00:53:16;;;;;;;8.77;6.78;;;;;;;;;;5053555;28;20393;-67
2023/05/22 00:55:43;;;;;;;10.45;6.15;;;;;;;;;;5052059;28;20650;-67
2023/05/22 00:58:14;;;;;;;8.27;6.43;;;;;;;;;;5053532;28;20051;-67
2023/05/22 01:00:41;;;;;;;;;;;;;;;;;;5053472;28;20086;-67
2023/05/22 01:03:08;;;;;;;9.45;5.88;;;;;;;;;;5053449;28;19904;-67
2023/05/22 01:05:35;;;;;;;9.40;6.72;;;;;;;;;;5053161;28;20062;-67
2023/05/22 01:08:02;;;;;;;10.00;6.30;;;;;;;;;;5053070;28;20542;-67
2023/05/22 01:10:29;;;;;;;8.20;6.15;;;;;;;;;;5052556;28;20481;-67
2023/05/22 01:13:08;;;;;;;11.30;6.32;;;;;;;;;;5052877;28;20500;-67
2023/05/22 01:15:46;;;;;;;8.32;6.00;;;;;;;;;;5052822;28;20419;-67
2023/05/22 01:18:31;;;;;;;7.63;6.10;;;;;;;;;;5052863;28;20476;-67
2023/05/22 01:21:03;;;;;;;8.30;6.53;;;;;;;;;;5052747;28;20033;-67
2023/05/22 01:23:47;;;;;;;12.23;6.22;;;;;;;;;;5052827;28;20078;-67
2023/05/22 01:26:32;;;;;;;15.10;6.70;;;;;;;;;;5052833;28;20078;-67
2023/05/22 01:29:21;;;;;;;9.52;6.70;;;;;;;;;;5052578;28;20032;-67
2023/05/22 01:31:48;;;;;;;8.82;6.50;;;;;;;;;;5049466;28;20045;-67
2023/05/22 01:34:15;;;;;;;7.03;6.07;;;;;;;;;;5052674;28;20025;-67
2023/05/22 01:36:44;;;;;;;8.05;6.57;;;;;;;;;;5052637;28;20421;-67
2023/05/22 01:39:11;;;;;;;7.68;5.75;;;;;;;;;;5052629;28;20039;-67
2023/05/22 01:41:38;;;;;;;7.78;5.95;;;;;;;;;;5052543;28;20389;-67
2023/05/22 01:44:04;;;;;;;6.47;5.72;;;;;;;;;;5052336;28;20025;-67
2023/05/22 01:46:31;;;;;;;11.13;5.90;;;;;;;;;;5052471;28;20440;-67
2023/05/22 01:48:57;;;;;;;9.68;5.85;;;;;;;;;;5052383;28;20021;-67
2023/05/22 01:51:33;;;;;;;9.05;5.57;;;;;;;;;;5052496;28;20036;-67
2023/05/22 01:54:04;;;;;;;6.88;5.30;;;;;;;;;;5052598;28;20021;-67
2023/05/22 01:56:39;;;;;;;9.43;5.55;;;;;;;;;;5052383;28;20032;-67
2023/05/22 01:59:29;;;;;;;9.35;5.60;;;;;;;;;;5052196;28;20037;-67
2023/05/22 02:01:57;;;;;;;16.15;5.93;;;;;;;;;;5052256;28;20401;-67
2023/05/22 02:04:25;;;;;;;7.30;5.15;;;;;;;;;;5052292;28;20025;-67
2023/05/22 02:06:52;;;;;;;12.27;6.18;;;;;;;;;;5052126;28;20508;-67
2023/05/22 02:09:21;;;;;;;8.63;6.07;;;;;;;;;;5052298;28;20025;-67
2023/05/22 02:11:47;;;;;;;7.97;6.28;;;;;;;;;;5052039;28;20029;-67
2023/05/22 02:14:14;;;;;;;8.18;5.90;;;;;;;;;;5052012;28;20033;-67
2023/05/22 02:16:41;;;;;;;7.25;6.10;;;;;;;;;;5052207;28;20074;-67
2023/05/22 02:19:07;;;;;;;7.68;5.43;;;;;;;;;;5051973;28;20370;-67
2023/05/22 02:21:34;;;;;;;8.23;5.35;;;;;;;;;;5051898;28;20082;-67
2023/05/22 02:24:01;;;;;;;8.88;5.60;;;;;;;;;;5051955;28;20404;-67
2023/05/22 02:26:27;;;;;;;10.10;6.25;;;;;;;;;;5052017;28;20474;-67
2023/05/22 02:28:53;;;;;;;8.73;5.85;;;;;;;;;;5051905;28;20027;-67
2023/05/22 02:31:20;;;;;;;8.43;5.65;;;;;;;;;;5051849;28;20053;-67
2023/05/22 02:33:47;;;;;;;7.05;5.63;;;;;;;;;;5051912;28;20029;-67
2023/05/22 02:36:13;;;;;;;7.43;6.03;;;;;;;;;;5051786;28;20029;-67
2023/05/22 02:38:39;;;;;;;10.23;5.80;;;;;;;;;;5052141;28;20021;-66
2023/05/22 02:41:07;;;;;;;6.20;5.07;;;;;;;;;;5051872;28;20045;-67
2023/05/22 02:43:33;;;;;;;12.98;5.35;;;;;;;;;;5051596;28;20486;-67
2023/05/22 02:45:59;;;;;;;8.43;5.90;;;;;;;;;;5051781;28;20021;-67
2023/05/22 02:48:28;;;;;;;13.15;6.10;;;;;;;;;;5051722;28;20028;-67
2023/05/22 02:50:54;;;;;;;8.45;6.05;;;;;;;;;;5051658;28;20025;-67
2023/05/22 02:53:20;;;;;;;6.95;6.05;;;;;;;;;;5051839;28;20025;-67
2023/05/22 02:55:47;;;;;;;11.35;6.35;;;;;;;;;;5051728;28;20033;-67
2023/05/22 02:58:13;;;;;;;11.35;6.65;;;;;;;;;;5051580;28;20020;-67
2023/05/22 03:00:43;;;;;;;10.50;6.63;;;;;;;;;;5051540;28;20029;-67
2023/05/22 03:03:10;;;;;;;9.10;6.53;;;;;;;;;;5051772;28;20400;-67
2023/05/22 03:05:37;;;;;;;12.73;6.78;;;;;;;;;;5051464;28;20013;-67
2023/05/22 03:08:04;;;;;;;9.82;7.07;;;;;;;;;;5050437;28;20040;-67
2023/05/22 03:10:30;;;;;;;8.60;7.25;;;;;;;;;;5051479;28;20447;-66
2023/05/22 03:12:57;;;;;;;15.27;7.10;;;;;;;;;;5051770;28;20032;-67
2023/05/22 03:15:23;;;;;;;9.23;6.40;;;;;;;;;;5051573;28;20027;-67
2023/05/22 03:17:49;;;;;;;11.05;6.35;;;;;;;;;;5051626;28;20032;-67
2023/05/22 03:20:16;;;;;;;9.50;6.63;;;;;;;;;;5051387;28;20041;-67
2023/05/22 03:22:44;;;;;;;7.30;5.97;;;;;;;;;;5051786;28;20018;-67
2023/05/22 03:25:11;;;;;;;7.70;5.97;;;;;;;;;;5051193;28;20017;-67
2023/05/22 03:27:39;;;;;;;8.85;6.28;;;;;;;;;;5051419;28;20507;-67
2023/05/22 03:30:06;;;;;;;9.18;6.63;;;;;;;;;;5051563;28;20036;-67
2023/05/22 03:32:36;;;;;;;12.68;6.88;;;;;;;;;;5051419;28;20041;-67
2023/05/22 03:35:03;;;;;;;7.43;6.03;;;;;;;;;;5055093;28;20037;-67
2023/05/22 03:37:29;;;;;;;7.60;6.38;;;;;;;;;;5054788;28;20033;-67
2023/05/22 03:39:56;;;;;;;8.50;6.32;;;;;;;;;;5054762;28;20039;-67
2023/05/22 03:42:22;;;;;;;9.27;6.30;;;;;;;;;;5054731;28;20025;-67
2023/05/22 03:44:48;;;;;;;9.90;7.10;;;;;;;;;;5054690;28;20389;-67
2023/05/22 03:47:15;;;;;;;9.00;6.05;;;;;;;;;;5054776;28;20466;-67
2023/05/22 03:49:41;;;;;;;11.95;7.05;;;;;;;;;;5054892;28;20025;-67
2023/05/22 03:52:09;;;;;;;8.15;6.32;;;;;;;;;;5054598;28;20012;-67
2023/05/22 03:54:36;;;;;;;9.55;6.85;;;;;;;;;;5054464;28;20100;-67
2023/05/22 03:57:02;;;;;;;7.35;6.38;;;;;;;;;;5054475;28;20025;-67
2023/05/22 03:59:28;;;;;;;14.02;7.55;;;;;;;;;;5054552;28;20033;-67
2023/05/22 04:01:56;;;;;;;7.80;6.63;;;;;;;;;;5054376;28;20482;-67
2023/05/22 04:04:26;;;;;;;10.95;7.05;;;;;;;;;;5054504;28;20367;-67
2023/05/22 04:06:53;;;;;;;8.18;6.45;;;;;;;;;;5054642;28;20049;-67
2023/05/22 04:09:19;;;;;;;7.93;6.75;;;;;;;;;;5054260;28;20029;-67
2023/05/22 04:11:47;;;;;;;7.55;6.38;;;;;;;;;;5054132;28;20029;-67
2023/05/22 04:14:13;;;;;;;10.25;6.55;;;;;;;;;;5054183;28;20017;-67
2023/05/22 04:16:40;;;;;;;7.38;6.32;;;;;;;;;;5054233;28;20043;-67
2023/05/22 04:19:08;;;;;;;10.48;6.32;;;;;;;;;;5054210;28;20025;-67
2023/05/22 04:21:34;;;;;;;9.02;6.50;;;;;;;;;;5053064;28;20029;-67
2023/05/22 04:24:05;;;;;;;9.10;6.35;;;;;;;;;;5052866;28;20021;-67
2023/05/22 04:26:31;;;;;;;;;;;;;;;;;;5054453;28;20407;-67
2023/05/22 04:28:58;;;;;;;12.63;6.22;;;;;;;;;;5053861;28;20374;-67
2023/05/22 04:31:24;;;;;;;12.32;6.57;;;;;;;;;;5053889;28;20424;-67
2023/05/22 04:33:51;;;;;;;18.75;6.45;;;;;;;;;;5053931;28;20025;-67
2023/05/22 04:36:21;;;;;;;7.93;6.75;;;;;;;;;;5053760;28;20401;-67
2023/05/22 04:38:49;;;;;;;8.18;6.57;;;;;;;;;;5052362;28;20474;-67
2023/05/22 04:41:16;;;;;;;8.90;6.40;;;;;;;;;;5053701;28;20045;-67
2023/05/22 04:43:47;;;;;;;7.00;6.10;;;;;;;;;;5053986;28;20023;-66
2023/05/22 04:46:16;;;;;;;9.45;7.25;;;;;;;;;;5052549;28;20099;-67
2023/05/22 04:48:42;;;;;;;15.20;7.03;;;;;;;;;;5053555;28;20032;-67
2023/05/22 04:51:08;;;;;;;8.90;6.70;;;;;;;;;;5053537;28;20021;-67
2023/05/22 04:53:37;;;;;;;8.10;6.53;;;;;;;;;;5053232;28;20027;-67
2023/05/22 04:56:03;;;;;;;12.38;6.93;;;;;;;;;;5053413;28;20025;-67
2023/05/22 04:58:30;;;;;;;9.25;6.40;;;;;;;;;;5053626;28;20028;-67
2023/05/22 05:00:56;;;;;;;9.02;6.72;;;;;;;;;;5053115;28;20036;-67
2023/05/22 05:03:24;;;;;;;9.02;7.13;;;;;;;;;;5053477;28;20019;-67
2023/05/22 05:05:51;;;;;;;8.65;6.40;;;;;;;;;;5053169;28;20020;-67
2023/05/22 05:08:17;;;;;;;9.68;6.80;;;;;;;;;;5052967;28;20048;-67
2023/05/22 05:10:43;;;;;;;13.00;7.07;;;;;;;;;;5053315;28;20032;-67
2023/05/22 05:13:10;;;;;;;14.70;6.95;;;;;;;;;;5052961;28;20025;-67
2023/05/22 05:15:36;;;;;;;8.90;6.82;;;;;;;;;;5053076;28;20041;-67
2023/05/22 05:18:02;;;;;;;9.95;6.95;;;;;;;;;;5052919;28;20017;-67
2023/05/22 05:20:29;;;;;;;8.10;6.38;;;;;;;;;;5053406;28;20029;-67
2023/05/22 05:22:55;;;;;;;9.98;6.47;;;;;;;;;;5052605;28;20032;-67
2023/05/22 05:25:22;;;;;;;10.57;5.88;;;;;;;;;;5052799;28;20070;-67
2023/05/22 05:27:48;;;;;;;7.22;5.45;;;;;;;;;;5052971;28;20029;-67
2023/05/22 05:30:14;;;;;;;10.90;6.18;;;;;;;;;;5052981;28;20021;-67
2023/05/22 05:32:40;;;;;;;10.02;6.00;;;;;;;;;;5052645;28;20053;-66
2023/05/22 05:35:07;;;;;;;12.18;6.15;;;;;;;;;;5052928;28;20041;-67
2023/05/22 05:37:33;;;;;;;10.75;7.75;;;;;;;;;;5052268;28;20036;-67
2023/05/22 05:40:00;;;;;;;10.63;7.78;;;;;;;;;;5052607;28;20033;-67
2023/05/22 05:42:26;;;;;;;10.93;7.45;;;;;;;;;;5052612;28;20488;-67
2023/05/22 05:44:52;;;;;;;11.68;7.10;;;;;;;;;;5052796;28;20073;-67
2023/05/22 05:47:22;;;;;;;10.57;6.70;;;;;;;;;;5052516;28;20025;-67
2023/05/22 05:49:49;;;;;;;7.35;6.30;;;;;;;;;;5052064;28;20036;-67
2023/05/22 05:52:15;;;;;;;7.70;6.88;;;;;;;;;;5052354;28;20017;-67
2023/05/22 05:54:45;;;;;;;12.82;7.20;;;;;;;;;;5051127;28;20408;-67
2023/05/22 05:57:11;;;;;;;6.97;5.68;;;;;;;;;;5052273;28;20066;-67
2023/05/22 05:59:38;;;;;;;7.03;5.95;;;;;;;;;;5052115;28;20034;-67
2023/05/22 06:02:04;;;;;;;7.50;4.93;;;;;;;;;;5052380;28;20055;-67
2023/05/22 06:04:30;;;;;;;7.78;5.13;;;;;;;;;;5052051;28;20021;-67
2023/05/22 06:06:56;;;;;;;8.80;4.95;;;;;;;;;;5051974;28;20497;-67
2023/05/22 06:09:23;;;;;;;5.68;4.90;;;;;;;;;;5052262;28;20055;-67
2023/05/22 06:11:49;;;;;;;7.72;5.28;;;;;;;;;;5084362;28;20040;-67
2023/05/22 06:14:16;;;;;;;7.15;5.15;;;;;;;;;;5052000;28;20405;-67
2023/05/22 06:16:42;;;;;;;6.18;4.47;;;;;;;;;;5051999;28;20021;-67
2023/05/22 06:19:08;;;;;;;5.82;5.13;;;;;;;;;;5049091;28;20021;-67
2023/05/22 06:21:35;;;;;;;6.15;4.93;;;;;;;;;;5049839;28;20021;-67
2023/05/22 06:24:01;;;;;;;6.78;5.57;;;;;;;;;;5051555;28;20409;-67
2023/05/22 06:26:27;;;;;;;5.70;4.72;;;;;;;;;;5051302;28;20025;-67
2023/05/22 06:28:54;;;;;;;5.68;5.07;;;;;;;;;;5051403;28;20474;-67
2023/05/22 06:31:21;;;;;;;6.57;5.97;;;;;;;;;;5051456;28;20053;-67
2023/05/22 06:33:47;;;;;;;6.68;5.65;;;;;;;;;;5050247;28;20022;-67
2023/05/22 06:36:14;;;;;;;7.22;5.63;;;;;;;;;;5070923;28;20025;-67
2023/05/22 06:38:41;;;;;;;6.00;5.40;;;;;;;;;;5051310;28;20031;-67
2023/05/22 06:41:07;;;;;;;6.03;5.25;;;;;;;;;;5051476;28;20032;-67
2023/05/22 06:43:33;;;;;;;5.75;5.15;;;;;;;;;;5049243;28;20036;-67
2023/05/22 06:46:00;;;;;;;5.93;5.15;;;;;;;;;;5051392;28;20036;-67
2023/05/22 06:48:26;;;;;;;7.38;4.57;;;;;;;;;;5050710;28;20028;-67
2023/05/22 06:50:52;;;;;;;7.68;5.15;;;;;;;;;;5051167;28;20037;-67
2023/05/22 06:53:19;;;;;;;6.43;5.10;;;;;;;;;;5051118;28;20021;-67
2023/05/22 06:55:45;;;;;;;8.07;5.10;;;;;;;;;;5051201;28;20029;-67
2023/05/22 06:58:11;;;;;;;9.15;5.10;;;;;;;;;;5051097;28;20435;-67
2023/05/22 07:00:38;;;;;;;8.55;5.18;;;;;;;;;;5051308;28;20029;-67
2023/05/22 07:03:05;;;;;;;5.60;4.85;;;;;;;;;;5050974;28;20083;-67
2023/05/22 07:05:31;;;;;;;5.85;4.38;;;;;;;;;;5051379;28;20031;-68
2023/05/22 07:07:58;;;;;;;7.85;5.00;;;;;;;;;;5051663;28;20033;-68
2023/05/22 07:10:26;;;;;;;7.38;4.85;;;;;;;;;;5054065;28;20028;-68
2023/05/22 07:12:52;;;;;;;5.57;4.95;;;;;;;;;;5054197;28;20039;-68
2023/05/22 07:15:19;;;;;;;5.60;4.47;;;;;;;;;;5054736;28;20033;-67
2023/05/22 07:17:45;;;;;;;4.90;4.38;;;;;;;;;;5054666;28;20029;-68
2023/05/22 07:20:14;;;;;;;4.65;4.22;;;;;;;;;;5052708;28;20025;-68
2023/05/22 07:22:41;;;;;;;5.63;4.45;;;;;;;;;;5056377;28;20021;-68
2023/05/22 07:25:07;;;;;;;8.60;4.47;;;;;;;;;;5054038;28;20029;-68
2023/05/22 07:27:33;;;;;;;7.43;4.47;;;;;;;;;;5053783;28;20023;-67
2023/05/22 07:30:00;;;;;;;6.95;4.97;;;;;;;;;;5053774;28;20467;-68
2023/05/22 07:32:26;;;;;;;6.60;5.03;;;;;;;;;;5053190;28;20059;-68
2023/05/22 07:34:53;;;;;;;8.48;4.70;;;;;;;;;;5053199;28;20555;-68
2023/05/22 07:37:21;;;;;;;5.15;4.60;;;;;;;;;;5052707;28;20032;-68
2023/05/22 07:39:47;;;;;;;6.88;5.20;;;;;;;;;;5053029;28;20029;-68
2023/05/22 07:42:13;;;;;;;8.20;5.60;;;;;;;;;;5053928;28;20021;-68
2023/05/22 07:44:40;;;;;;;8.45;5.80;;;;;;;;;;5053842;28;20075;-68
2023/05/22 07:47:07;;;;;;;6.10;5.47;;;;;;;;;;5053444;28;20029;-68
2023/05/22 07:49:34;;;;;;;7.03;5.28;;;;;;;;;;5053291;28;20070;-67
2023/05/22 07:52:00;;;;;;;6.07;5.45;;;;;;;;;;5052545;28;20481;-67
2023/05/22 07:54:26;;;;;;;7.85;5.80;;;;;;;;;;5052854;28;20027;-68
2023/05/22 07:56:54;;;;;;;5.93;5.32;;;;;;;;;;5053813;28;20021;-67
2023/05/22 07:59:22;;;;;;;6.13;5.53;;;;;;;;;;5052528;28;20025;-68
2023/05/22 08:01:48;;;;;;;7.75;6.05;;;;;;;;;;5052322;28;20033;-68
2023/05/22 08:04:15;;;;;;;7.05;5.68;;;;;;;;;;5053486;28;20028;-68
2023/05/22 08:06:43;;;;;;;7.28;5.50;;;;;;;;;;5052870;28;20041;-67
2023/05/22 08:09:09;;;;;;;12.52;5.63;;;;;;;;;;5053190;28;20409;-68
2023/05/22 08:11:38;;;;;;;6.32;5.63;;;;;;;;;;5052632;28;20027;-68
2023/05/22 08:14:05;;;;;;;5.57;5.07;;;;;;;;;;5052719;28;20032;-68
2023/05/22 08:16:31;;;;;;;6.05;5.45;;;;;;;;;;5052313;28;20446;-68
2023/05/22 08:18:58;;;;;;;6.28;5.38;;;;;;;;;;5052628;28;20381;-68
2023/05/22 08:21:24;;;;;;;7.45;5.30;;;;;;;;;;5051461;28;20044;-68
2023/05/22 08:23:50;;;;;;;8.13;4.97;;;;;;;;;;5051237;28;20470;-68
2023/05/22 08:26:16;;;;;;;5.28;4.88;;;;;;;;;;5052274;28;20029;-68
2023/05/22 08:28:43;;;;;;;5.75;5.20;;;;;;;;;;5052834;28;20031;-69
2023/05/22 08:31:12;;;;;;;6.65;4.90;;;;;;;;;;5051512;28;20515;-69
2023/05/22 08:33:39;;;;;;;6.47;4.87;;;;;;;;;;5051641;28;20037;-69
2023/05/22 08:36:06;;;;;;;5.88;4.97;;;;;;;;;;5052041;28;20029;-69
2023/05/22 08:38:32;;;;;;;5.45;4.55;;;;;;;;;;5052669;28;20024;-69
2023/05/22 08:40:59;;;;;;;5.10;4.53;;;;;;;;;;5051860;28;20043;-69
2023/05/22 08:43:27;;;;;;;4.75;4.32;;;;;;;;;;5051964;28;20017;-69
2023/05/22 08:46:02;;;;;;;6.22;4.47;;;;;;;;;;5050427;28;20483;-69
2023/05/22 08:48:31;;;;;;;4.90;4.50;;;;;;;;;;5049628;28;20020;-69
2023/05/22 08:51:01;;;;;;;4.38;4.05;;;;;;;;;;5051544;28;20029;-69
2023/05/22 08:53:28;;;;;;;;;;;;;;;;;;5041946;28;20463;-69
2023/05/22 08:55:55;;;;;;;5.00;4.60;;;;;;;;;;5052290;28;19904;-69
2023/05/22 08:58:21;;;;;;;4.82;4.32;;;;;;;;;;5051919;28;20021;-68
2023/05/22 09:00:48;;;;;;;5.68;4.05;;;;;;;;;;5051465;28;20459;-68
2023/05/22 09:03:14;;;;;;;5.25;4.57;;;;;;;;;;5045200;28;20025;-69
2023/05/22 09:05:41;;;;;;;5.88;4.68;;;;;;;;;;5042835;28;20029;-69
2023/05/22 09:08:07;;;;;;;6.63;4.35;;;;;;;;;;5048243;28;20025;-69
2023/05/22 09:10:34;;;;;;;5.43;4.32;;;;;;;;;;5051986;28;20051;-69
2023/05/22 09:13:06;;;;;;;8.15;4.63;;;;;;;;;;5050346;28;20037;-69
2023/05/22 09:15:33;;;;;;;5.20;4.70;;;;;;;;;;5051748;28;20024;-69
2023/05/22 09:18:00;;;;;;;7.78;4.38;;;;;;;;;;5052719;28;20535;-69
2023/05/22 09:20:26;;;;;;;5.13;4.60;;;;;;;;;;5051507;28;20051;-69
2023/05/22 09:22:52;;;;;;;5.20;4.70;;;;;;;;;;5052005;28;20025;-70
2023/05/22 09:25:19;;;;;;;4.90;4.40;;;;;;;;;;5051428;28;20029;-70
2023/05/22 09:27:46;;;;;;;6.80;4.88;;;;;;;;;;5049938;28;20405;-70
2023/05/22 09:30:20;;;;;;;4.40;4.10;;;;;;;;;;5050502;28;20040;-70
2023/05/22 09:32:48;;;;;;;6.22;4.10;;;;;;;;;;5050955;28;20097;-70
2023/05/22 09:35:14;;;;;;;4.22;3.90;;;;;;;;;;5051575;28;20400;-69
2023/05/22 09:37:41;;;;;;;4.35;4.03;;;;;;;;;;5050961;28;20032;-70
2023/05/22 09:40:08;;;;;;;4.40;4.00;;;;;;;;;;5051162;28;20478;-70
2023/05/22 09:42:35;;;;;;;5.93;3.92;;;;;;;;;;5051165;28;20099;-70
2023/05/22 09:45:10;;;;;;;4.50;3.95;;;;;;;;;;5052190;28;20039;-70
2023/05/22 09:47:36;;;;;;;4.38;3.95;;;;;;;;;;5051152;28;20021;-70
2023/05/22 09:50:05;;;;;;;4.60;4.20;;;;;;;;;;5051428;28;20027;-70
2023/05/22 09:52:36;;;;;;;4.47;3.77;;;;;;;;;;5051153;28;20027;-70
2023/05/22 09:55:05;;;;;;;6.07;3.97;;;;;;;;;;5051003;28;20797;-70
2023/05/22 09:57:33;;;;;;;3.58;3.25;;;;;;;;;;5050119;28;20493;-70
2023/05/22 10:00:00;;;;;;;4.60;3.67;;;;;;;;;;5050829;28;20036;-70
2023/05/22 10:02:27;;;;;;;3.83;3.40;;;;;;;;;;5050606;28;20025;-70
2023/05/22 10:04:54;;;;;;;5.05;3.47;;;;;;;;;;5050814;28;20512;-69
2023/05/22 10:07:28;;;;;;;5.20;3.33;;;;;;;;;;5050932;28;20037;-70
2023/05/22 10:10:06;;;;;;;5.20;3.63;;;;;;;;;;5050937;28;20037;-69
2023/05/22 10:12:33;;;;;;;4.85;3.85;;;;;;;;;;5050890;28;20413;-69
2023/05/22 10:15:01;;;;;;;5.85;3.67;;;;;;;;;;5051003;28;20040;-70
2023/05/22 10:17:28;;;;;;;5.30;3.78;;;;;;;;;;5050587;28;20017;-69
2023/05/22 10:19:57;;;;;;;5.93;3.90;;;;;;;;;;5049637;28;20389;-69
2023/05/22 10:22:24;;;;;;;4.65;3.88;;;;;;;;;;5051438;28;20017;-69
2023/05/22 10:24:51;;;;;;;4.97;4.15;;;;;;;;;;5051167;28;20025;-69
2023/05/22 10:27:17;;;;;;;5.50;4.30;;;;;;;;;;5050720;28;20029;-69
2023/05/22 10:29:52;;;;;;;7.25;4.07;;;;;;;;;;5050629;28;20028;-68
2023/05/22 10:32:19;;;;;;;5.25;3.95;;;;;;;;;;5050427;28;20424;-69
2023/05/22 10:34:48;;;;;;;5.22;4.20;;;;;;;;;;5050880;28;20383;-69
2023/05/22 10:37:34;;;;;;;5.88;3.72;;;;;;;;;;5050829;28;20029;-69
2023/05/22 10:40:03;;;;;;;10.13;4.63;;;;;;;;;;5049004;28;20490;-69
2023/05/22 10:42:33;;;;;;;6.28;5.03;;;;;;;;;;5049868;28;20040;-69
2023/05/22 10:45:03;;;;;;;7.60;5.28;;;;;;;;;;5054498;28;20039;-69
2023/05/22 10:47:29;;;;;;;5.90;4.60;;;;;;;;;;5054492;28;20041;-68
2023/05/22 10:50:03;;;;;;;7.40;4.95;;;;;;;;;;5054490;28;20031;-68
2023/05/22 10:52:29;;;;;;;6.95;4.38;;;;;;;;;;5054726;28;20035;-68
2023/05/22 10:54:56;;;;;;;8.38;4.95;;;;;;;;;;5054487;28;20104;-68
2023/05/22 10:57:23;;;;;;;6.85;4.80;;;;;;;;;;5054676;28;20051;-68
2023/05/22 10:59:50;;;;;;;11.00;4.95;;;;;;;;;;5054352;28;20033;-69
2023/05/22 11:02:20;;;;;;;7.18;5.43;;;;;;;;;;5054499;28;20044;-70
2023/05/22 11:04:47;;;;;;;;;;;;;;;;;;5054757;28;20409;-69
2023/05/22 11:07:14;;;;;;;7.85;5.10;;;;;;;;;;5054236;28;20292;-69
2023/05/22 11:09:47;;;;;;;6.25;5.25;;;;;;;;;;5054357;28;20032;-69
2023/05/22 11:12:16;;;;;;;7.18;5.40;;;;;;;;;;5054618;28;20078;-69
2023/05/22 11:14:48;;;;;;;7.85;6.18;;;;;;;;;;5054596;28;20508;-69
2023/05/22 11:17:17;;;;;;;6.03;5.40;;;;;;;;;;5034766;28;20017;-69
2023/05/22 11:19:44;;;;;;;6.65;5.55;;;;;;;;;;5034376;28;20029;-69
2023/05/22 11:22:12;;;;;;;6.32;5.50;;;;;;;;;;5034144;28;20025;-69
2023/05/22 11:24:40;;;;;;;8.52;5.25;;;;;;;;;;5033973;28;20022;-69
2023/05/22 11:27:06;;;;;;;6.45;5.75;;;;;;;;;;5034034;28;20025;-69
2023/05/22 11:29:33;;;;;;;8.75;6.18;;;;;;;;;;5034344;28;20436;-69
2023/05/22 11:32:00;;;;;;;6.57;5.90;;;;;;;;;;5034907;28;20414;-69
2023/05/22 11:34:27;;;;;;;5.72;5.20;;;;;;;;;;5038376;28;20028;-69
2023/05/22 11:36:58;;;;;;;8.55;6.00;;;;;;;;;;5052725;28;20031;-68
2023/05/22 11:39:25;;;;;;;6.20;5.60;;;;;;;;;;5054205;28;20031;-68
2023/05/22 11:41:51;;;;;;;12.63;6.25;;;;;;;;;;5053979;28;20029;-69
2023/05/22 11:44:17;;;;;;;6.57;5.53;;;;;;;;;;5049026;28;20025;-69
2023/05/22 11:46:44;;;;;;;7.85;5.38;;;;;;;;;;5050687;28;20379;-70
2023/05/22 11:49:13;;;;;;;5.90;5.30;;;;;;;;;;5051922;28;20031;-69
2023/05/22 11:51:40;;;;;;;11.63;5.20;;;;;;;;;;5049722;28;20029;-69
2023/05/22 11:54:06;;;;;;;10.25;4.90;;;;;;;;;;5050726;28;20037;-71
2023/05/22 11:56:33;;;;;;;5.93;4.97;;;;;;;;;;5052585;28;20029;-69
2023/05/22 11:58:59;;;;;;;7.05;5.13;;;;;;;;;;5053002;28;20035;-69
2023/05/22 12:01:25;;;;;;;5.65;5.10;;;;;;;;;;5052853;28;20036;-69
2023/05/22 12:03:53;;;;;;;6.63;5.10;;;;;;;;;;5052912;28;20389;-69
2023/05/22 12:06:19;;;;;;;6.30;5.03;;;;;;;;;;5052537;28;20419;-69
2023/05/22 12:08:45;;;;;;;7.07;5.43;;;;;;;;;;5052738;28;20017;-68
2023/05/22 12:11:12;;;;;;;7.00;5.30;;;;;;;;;;5053072;28;20040;-69
2023/05/22 12:13:38;;;;;;;8.27;5.05;;;;;;;;;;5052278;28;20025;-68
2023/05/22 12:16:17;;;;;;;9.98;5.10;;;;;;;;;;5052256;28;20051;-69
2023/05/22 12:18:43;;;;;;;6.13;4.85;;;;;;;;;;5053249;28;20029;-69
2023/05/22 12:21:10;;;;;;;5.55;5.00;;;;;;;;;;5052711;28;20033;-68
2023/05/22 12:23:47;;;;;;;5.63;5.03;;;;;;;;;;5052260;28;20474;-69
2023/05/22 12:26:14;;;;;;;5.43;4.47;;;;;;;;;;5052429;28;20485;-68
2023/05/22 12:28:40;;;;;;;4.57;4.18;;;;;;;;;;5052254;28;20082;-69
2023/05/22 12:31:06;;;;;;;6.13;3.90;;;;;;;;;;5052017;28;20055;-68
2023/05/22 12:33:33;;;;;;;5.32;3.83;;;;;;;;;;5052262;28;20046;-69
2023/05/22 12:35:59;;;;;;;7.68;3.65;;;;;;;;;;5051083;28;20373;-69
2023/05/22 12:38:26;;;;;;;7.43;4.00;;;;;;;;;;5051823;28;20090;-68
2023/05/22 12:40:53;;;;;;;4.13;3.72;;;;;;;;;;5051905;28;20511;-69
2023/05/22 12:43:20;;;;;;;5.20;3.95;;;;;;;;;;5051895;28;20017;-68
2023/05/22 12:45:47;;;;;;;5.28;3.88;;;;;;;;;;5052032;28;20021;-68
2023/05/22 12:48:13;;;;;;;4.00;3.60;;;;;;;;;;5051625;28;20375;-67
2023/05/22 12:50:39;;;;;;;5.38;4.32;;;;;;;;;;5054414;28;20029;-68
2023/05/22 12:53:06;;;;;;;4.63;4.00;;;;;;;;;;5051911;28;20029;-68
2023/05/22 12:55:33;;;;;;;5.03;4.28;;;;;;;;;;5051900;28;20017;-68
2023/05/22 12:58:00;;;;;;;5.38;4.22;;;;;;;;;;5051426;28;20024;-67
2023/05/22 13:00:26;;;;;;;8.75;4.15;;;;;;;;;;5051899;28;20052;-69
2023/05/22 13:02:52;;;;;;;5.68;4.30;;;;;;;;;;5051779;28;20037;-69
2023/05/22 13:05:19;;;;;;;6.78;4.40;;;;;;;;;;5050764;28;20025;-68
2023/05/22 13:07:45;;;;;;;7.90;4.40;;;;;;;;;;5051176;28;20033;-69
2023/05/22 13:10:12;;;;;;;7.63;4.60;;;;;;;;;;5051484;28;20082;-68
2023/05/22 13:12:39;;;;;;;5.30;4.80;;;;;;;;;;5051569;28;20029;-69
2023/05/22 13:15:05;;;;;;;8.85;5.22;;;;;;;;;;5051207;28;20031;-69
2023/05/22 13:17:32;;;;;;;6.97;5.07;;;;;;;;;;5050686;28;20499;-69
2023/05/22 13:19:58;;;;;;;5.60;4.85;;;;;;;;;;5051210;28;20033;-68
2023/05/22 13:22:25;;;;;;;10.32;5.00;;;;;;;;;;5049883;28;20029;-68
2023/05/22 13:24:51;;;;;;;5.82;4.82;;;;;;;;;;5050423;28;20371;-68
2023/05/22 13:27:18;;;;;;;5.20;4.53;;;;;;;;;;5050973;28;20013;-68
2023/05/22 13:29:44;;;;;;;6.43;4.53;;;;;;;;;;5049909;28;20036;-68
2023/05/22 13:32:12;;;;;;;6.35;4.28;;;;;;;;;;5050844;28;20053;-69
2023/05/22 13:34:39;;;;;;;5.32;4.05;;;;;;;;;;5050932;28;20390;-68
2023/05/22 13:37:05;;;;;;;4.57;3.97;;;;;;;;;;5050953;28;20017;-69
2023/05/22 13:39:32;;;;;;;5.45;3.80;;;;;;;;;;5050925;28;20497;-68
2023/05/22 13:41:59;;;;;;;4.90;3.28;;;;;;;;;;5050926;28;20397;-69
2023/05/22 13:44:25;;;;;;;5.10;3.13;;;;;;;;;;5050739;28;20466;-69
2023/05/22 13:46:51;;;;;;;3.55;2.60;;;;;;;;;;5050714;28;20041;-68
2023/05/22 13:49:18;;;;;;;3.22;2.72;;;;;;;;;;5050400;28;20023;-69
2023/05/22 13:51:44;;;;;;;3.75;2.90;;;;;;;;;;5049816;28;20037;-69
2023/05/22 13:54:10;;;;;;;3.80;2.90;;;;;;;;;;5050505;28;20397;-69
2023/05/22 13:56:36;;;;;;;6.75;2.58;;;;;;;;;;5049245;28;20041;-69
2023/05/22 13:59:03;;;;;;;4.10;2.30;;;;;;;;;;5050704;28;20371;-69
2023/05/22 14:01:30;;;;;;;2.75;2.40;;;;;;;;;;5050456;28;20043;-69
2023/05/22 14:03:56;;;;;;;2.58;2.30;;;;;;;;;;5050276;28;20032;-69
2023/05/22 14:06:23;;;;;;;3.67;2.30;;;;;;;;;;5050384;28;20029;-68
2023/05/22 14:08:49;;;;;;;4.22;2.38;;;;;;;;;;5050333;28;20035;-68
2023/05/22 14:11:16;;;;;;;4.25;2.55;;;;;;;;;;5056622;28;20028;-69
2023/05/22 14:13:42;;;;;;;3.05;2.30;;;;;;;;;;5051835;28;20098;-69
2023/05/22 14:16:08;;;;;;;3.25;2.55;;;;;;;;;;5049580;28;20037;-69
2023/05/22 14:18:35;;;;;;;6.45;2.80;;;;;;;;;;5047793;28;20024;-69
2023/05/22 14:21:02;;;;;;;2.30;2.10;;;;;;;;;;5050242;28;20410;-68
2023/05/22 14:23:29;;;;;;;3.92;2.70;;;;;;;;;;5049882;28;20020;-69
2023/05/22 14:25:55;;;;;;;2.75;2.20;;;;;;;;;;5050204;28;20074;-70
2023/05/22 14:28:21;;;;;;;4.82;2.38;;;;;;;;;;5047887;28;20025;-69
2023/05/22 14:30:48;;;;;;;2.55;2.35;;;;;;;;;;5050220;28;20439;-69
2023/05/22 14:33:14;;;;;;;2.22;2.03;;;;;;;;;;5049761;28;20033;-69
2023/05/22 14:35:41;;;;;;;2.90;2.15;;;;;;;;;;5050617;28;20028;-69
2023/05/22 14:38:07;;;;;;;2.67;2.10;;;;;;;;;;5048983;28;20039;-69
2023/05/22 14:40:33;;;;;;;4.00;2.10;;;;;;;;;;5049205;28;20032;-69
2023/05/22 14:43:00;;;;;;;5.07;2.38;;;;;;;;;;5050429;28;20048;-68
2023/05/22 14:45:26;;;;;;;2.20;2.00;;;;;;;;;;5049955;28;20090;-69